createdAt,value
2019-01-23T00:01:48.361Z,-1.90
2019-01-23T00:06:41.462Z,-1.80
2019-01-23T00:11:34.521Z,-1.80
2019-01-23T00:16:27.590Z,-1.90
2019-01-23T00:21:20.465Z,-1.80
2019-01-23T00:26:14.657Z,-1.80
2019-01-23T00:31:07.723Z,-1.80
2019-01-23T00:36:00.815Z,-1.80
2019-01-23T00:40:53.804Z,-1.80
2019-01-23T00:45:46.835Z,-1.70
2019-01-23T00:50:39.902Z,-1.70
2019-01-23T00:55:33.278Z,-1.70
2019-01-23T01:00:26.823Z,-1.70
2019-01-23T01:05:20.429Z,-1.60
2019-01-23T01:10:14.613Z,-1.60
2019-01-23T01:15:13.299Z,-1.70
2019-01-23T01:20:04.255Z,-1.70
2019-01-23T01:24:57.225Z,-1.40
2019-01-23T01:29:50.195Z,-1.60
2019-01-23T01:34:43.166Z,-1.50
2019-01-23T01:39:36.134Z,-1.50
2019-01-23T01:44:29.105Z,-1.50
2019-01-23T01:49:23.736Z,-1.50
2019-01-23T01:54:16.669Z,-1.60
2019-01-23T01:59:09.745Z,-1.50
2019-01-23T02:04:02.808Z,-1.60
2019-01-23T02:08:55.775Z,-1.60
2019-01-23T02:13:50.586Z,-1.60
2019-01-23T02:18:43.558Z,-1.60
2019-01-23T02:23:36.627Z,-1.60
2019-01-23T02:28:29.693Z,-1.50
2019-01-23T02:33:22.660Z,-1.60
2019-01-23T02:38:15.735Z,-1.50
2019-01-23T02:43:08.805Z,-1.50
2019-01-23T02:48:01.890Z,-1.50
2019-01-23T02:52:54.941Z,-1.50
2019-01-23T02:57:47.928Z,-1.40
2019-01-23T03:02:40.881Z,-1.50
2019-01-23T03:07:33.946Z,-1.50
2019-01-23T03:12:27.120Z,-1.50
2019-01-23T03:17:20.103Z,-1.40
2019-01-23T03:22:13.975Z,-1.40
2019-01-23T03:27:07.043Z,-1.40
2019-01-23T03:32:00.119Z,-1.40
2019-01-23T03:36:53.177Z,-1.30
2019-01-23T03:41:46.072Z,-1.30
2019-01-23T03:46:39.150Z,-1.30
2019-01-23T03:51:32.103Z,-1.30
2019-01-23T03:56:25.269Z,-1.30
2019-01-23T04:01:18.244Z,-1.40
2019-01-23T04:06:11.198Z,-1.40
2019-01-23T04:11:04.476Z,-1.40
2019-01-23T04:15:57.424Z,-1.40
2019-01-23T04:20:50.228Z,-1.40
2019-01-23T04:25:46.656Z,-1.40
2019-01-23T04:30:39.497Z,-1.40
2019-01-23T04:35:32.397Z,-1.40
2019-01-23T04:40:25.264Z,-1.40
2019-01-23T04:45:18.233Z,-1.40
2019-01-23T04:50:13.339Z,-1.40
2019-01-23T04:55:06.417Z,-1.50
2019-01-23T04:59:59.258Z,-1.50
2019-01-23T05:04:52.290Z,-1.60
2019-01-23T05:09:45.156Z,-1.60
2019-01-23T05:14:38.062Z,-1.50
2019-01-23T05:19:30.916Z,-1.60
2019-01-23T05:24:23.751Z,-1.60
2019-01-23T05:29:16.600Z,-1.60
2019-01-23T05:34:09.432Z,-1.60
2019-01-23T05:39:04.109Z,-1.70
2019-01-23T05:43:56.928Z,-1.60
2019-01-23T05:48:49.799Z,-1.70
2019-01-23T05:53:42.596Z,-1.60
2019-01-23T05:58:35.466Z,-1.60
2019-01-23T06:03:28.420Z,-1.60
2019-01-23T06:08:21.275Z,-1.50
2019-01-23T06:13:14.149Z,-1.50
2019-01-23T06:18:08.143Z,-1.50
2019-01-23T06:23:01.005Z,-1.40
2019-01-23T06:27:53.841Z,-1.40
2019-01-23T06:32:46.690Z,-1.40
2019-01-23T06:37:39.535Z,-1.50
2019-01-23T06:42:32.370Z,-1.50
2019-01-23T06:47:25.203Z,-1.50
2019-01-23T06:52:18.047Z,-1.50
2019-01-23T06:57:10.910Z,-1.40
2019-01-23T07:02:05.367Z,-1.50
2019-01-23T07:06:58.192Z,-1.40
2019-01-23T07:11:51.103Z,-1.40
2019-01-23T07:16:43.943Z,-1.30
2019-01-23T07:21:36.789Z,-1.40
2019-01-23T07:26:29.637Z,-1.30
2019-01-23T07:31:22.522Z,-1.30
2019-01-23T07:36:34.821Z,-1.40
2019-01-23T07:41:27.627Z,-0.60
2019-01-23T07:46:22.268Z,-1.40
2019-01-23T07:51:16.115Z,-1.40
2019-01-23T07:56:09.050Z,-1.40
2019-01-23T08:01:01.873Z,-1.30
2019-01-23T08:05:54.721Z,-1.30
2019-01-23T08:10:47.596Z,-1.40
2019-01-23T08:15:40.457Z,-1.40
2019-01-23T08:20:33.263Z,-1.30
2019-01-23T08:25:26.224Z,-1.50
2019-01-23T08:30:21.070Z,-1.60
2019-01-23T08:35:14.840Z,-1.50
2019-01-23T08:40:10.406Z,-1.50
2019-01-23T08:45:05.093Z,-1.50
2019-01-23T08:49:57.933Z,-1.40
2019-01-23T08:54:50.736Z,-1.30
2019-01-23T08:59:43.605Z,-1.30
2019-01-23T09:04:36.476Z,-1.20
2019-01-23T09:09:48.772Z,-1.10
2019-01-23T09:14:41.575Z,-1.30
2019-01-23T09:19:34.433Z,-1.20
2019-01-23T09:24:29.797Z,-1.10
2019-01-23T09:29:22.633Z,-0.90
2019-01-23T09:35:53.207Z,-0.70
2019-01-23T09:41:24.122Z,-0.80
2019-01-23T09:46:50.511Z,-0.90
2019-01-23T09:53:02.519Z,-1.00
2019-01-23T09:57:59.513Z,-0.90
2019-01-23T10:02:56.692Z,-0.80
2019-01-23T10:07:53.733Z,-0.80
2019-01-23T10:12:50.400Z,-0.60
2019-01-23T10:17:48.694Z,-0.40
2019-01-23T10:22:45.612Z,-0.50
2019-01-23T10:27:43.252Z,-0.50
2019-01-23T10:32:40.414Z,-0.70
2019-01-23T10:37:37.815Z,-0.50
2019-01-23T10:42:35.033Z,-0.60
2019-01-23T10:47:31.753Z,-0.40
2019-01-23T10:52:29.138Z,-0.40
2019-01-23T10:57:25.705Z,-0.30
2019-01-23T11:02:21.154Z,0.30
2019-01-23T11:07:18.723Z,0.10
2019-01-23T11:12:16.428Z,0.00
2019-01-23T11:17:13.711Z,0.00
2019-01-23T11:22:10.271Z,0.10
2019-01-23T11:27:06.457Z,0.10
2019-01-23T11:32:02.334Z,0.10
2019-01-23T11:36:57.719Z,0.20
2019-01-23T11:41:53.929Z,0.30
2019-01-23T11:46:49.471Z,0.40
2019-01-23T11:51:44.834Z,0.50
2019-01-23T11:56:40.207Z,0.90
2019-01-23T12:01:36.570Z,0.70
2019-01-23T12:06:31.929Z,0.50
2019-01-23T12:11:26.515Z,0.80
2019-01-23T12:16:22.925Z,0.80
2019-01-23T12:21:18.551Z,0.70
2019-01-23T12:26:14.007Z,0.90
2019-01-23T12:31:09.671Z,1.10
2019-01-23T12:36:06.186Z,0.90
2019-01-23T12:41:02.266Z,0.90
2019-01-23T12:45:55.572Z,1.60
2019-01-23T12:50:48.982Z,1.80
2019-01-23T12:55:41.935Z,2.20
2019-01-23T13:00:34.917Z,2.20
2019-01-23T13:05:28.832Z,2.00
2019-01-23T13:10:22.230Z,1.60
2019-01-23T13:15:22.172Z,1.60
2019-01-23T13:20:16.197Z,0.70
2019-01-23T13:25:13.925Z,0.70
2019-01-23T13:30:10.752Z,1.00
2019-01-23T13:35:05.542Z,1.00
2019-01-23T13:39:58.359Z,1.50
2019-01-23T13:44:51.236Z,1.80
2019-01-23T13:49:44.076Z,2.10
2019-01-23T13:54:36.929Z,2.10
2019-01-23T13:59:29.756Z,2.30
2019-01-23T14:04:22.602Z,1.60
2019-01-23T14:09:15.443Z,1.60
2019-01-23T14:14:08.297Z,1.20
2019-01-23T14:19:01.149Z,1.00
2019-01-23T14:23:53.974Z,0.50
2019-01-23T14:28:46.848Z,0.70
2019-01-23T14:33:39.781Z,0.70
2019-01-23T14:38:32.663Z,0.50
2019-01-23T14:43:25.519Z,0.60
2019-01-23T14:48:18.362Z,0.90
2019-01-23T14:53:11.201Z,0.80
2019-01-23T14:58:04.766Z,0.40
2019-01-23T15:02:57.601Z,0.40
2019-01-23T15:07:50.465Z,0.30
2019-01-23T15:12:43.284Z,0.30
2019-01-23T15:17:36.182Z,0.30
2019-01-23T15:22:29.401Z,0.30
2019-01-23T15:27:24.143Z,0.30
2019-01-23T15:32:17.606Z,0.20
2019-01-23T15:37:10.592Z,0.20
2019-01-23T15:42:03.440Z,0.10
2019-01-23T15:46:56.295Z,0.10
2019-01-23T15:51:49.170Z,-0.10
2019-01-23T15:56:41.999Z,-0.20
2019-01-23T16:01:34.831Z,-0.20
2019-01-23T16:06:27.669Z,-0.30
2019-01-23T16:11:20.541Z,-0.30
2019-01-23T16:16:13.374Z,-0.20
2019-01-23T16:21:06.241Z,-0.20
2019-01-23T16:25:59.100Z,-0.30
2019-01-23T16:30:51.935Z,-0.30
2019-01-23T16:35:44.791Z,-0.60
2019-01-23T16:40:37.638Z,-0.70
2019-01-23T16:45:30.596Z,-0.60
2019-01-23T16:50:24.650Z,-0.80
2019-01-23T16:55:17.662Z,-0.80
2019-01-23T17:00:14.026Z,-0.80
2019-01-23T17:05:12.921Z,-0.80
2019-01-23T17:10:12.882Z,-0.60
2019-01-23T17:15:07.552Z,-0.50
2019-01-23T17:20:03.875Z,-0.50
2019-01-23T17:24:56.739Z,-0.70
2019-01-23T17:29:49.603Z,-0.50
2019-01-23T17:34:42.447Z,-0.50
2019-01-23T17:39:35.346Z,-0.60
2019-01-23T17:44:28.206Z,-0.80
2019-01-23T17:49:21.062Z,-0.80
2019-01-23T17:54:16.042Z,-0.90
2019-01-23T17:59:08.749Z,-0.90
2019-01-23T18:04:01.608Z,-0.90
2019-01-23T18:08:54.444Z,-0.50
2019-01-23T18:13:47.312Z,-0.10
2019-01-23T18:18:40.167Z,-0.20
2019-01-23T18:23:33.062Z,-0.50
2019-01-23T18:28:25.897Z,-0.80
2019-01-23T18:33:25.404Z,-0.70
2019-01-23T18:38:53.194Z,-0.80
2019-01-23T18:44:28.342Z,-0.80
2019-01-23T18:50:12.270Z,-0.80
2019-01-23T18:55:09.046Z,-0.90
2019-01-23T19:00:01.992Z,-1.90
2019-01-23T19:04:54.838Z,-1.00
2019-01-23T19:09:47.734Z,-0.80
2019-01-23T19:14:40.581Z,-0.70
2019-01-23T19:19:33.438Z,-0.60
2019-01-23T19:24:26.311Z,-0.50
2019-01-23T19:29:19.163Z,-0.60
2019-01-23T19:34:12.011Z,-0.70
2019-01-23T19:39:08.178Z,-0.70
2019-01-23T19:44:01.023Z,-0.40
2019-01-23T19:48:54.165Z,-0.20
2019-01-23T19:53:46.971Z,-0.10
2019-01-23T19:58:39.811Z,-0.50
2019-01-23T20:03:32.626Z,-0.40
2019-01-23T20:08:27.308Z,-0.50
2019-01-23T20:13:20.138Z,-0.30
2019-01-23T20:18:12.988Z,-0.40
2019-01-23T20:23:05.805Z,-0.60
2019-01-23T20:27:58.694Z,-0.70
2019-01-23T20:32:51.534Z,-0.60
2019-01-23T20:37:44.443Z,-0.60
2019-01-23T20:42:37.249Z,-0.60
2019-01-23T20:47:30.113Z,-0.50
2019-01-23T20:52:22.967Z,-0.50
2019-01-23T20:57:15.786Z,-0.50
2019-01-23T21:02:08.859Z,-0.50
2019-01-23T21:07:01.660Z,-0.40
2019-01-23T21:11:54.508Z,-0.60
2019-01-23T21:16:47.410Z,-0.60
2019-01-23T21:21:40.258Z,-0.60
2019-01-23T21:26:33.087Z,-0.50
2019-01-23T21:31:25.964Z,-0.30
2019-01-23T21:36:18.888Z,0.00
2019-01-23T21:41:11.721Z,0.50
2019-01-23T21:46:04.785Z,0.40
2019-01-23T21:50:57.638Z,0.40
2019-01-23T21:55:50.539Z,0.40
2019-01-23T22:00:46.750Z,0.90
2019-01-23T22:05:39.724Z,0.80
2019-01-23T22:10:32.662Z,0.80
2019-01-23T22:15:26.193Z,0.80
2019-01-23T22:20:19.701Z,0.60
2019-01-23T22:25:14.691Z,0.50
2019-01-23T22:30:12.854Z,0.40
2019-01-23T22:35:06.462Z,0.40
2019-01-23T22:39:59.275Z,0.40
2019-01-23T22:44:52.126Z,0.40
2019-01-23T22:49:44.933Z,0.50
2019-01-23T22:54:37.770Z,0.50
2019-01-23T22:59:30.600Z,0.60
2019-01-23T23:04:23.465Z,0.60
2019-01-23T23:09:16.279Z,0.50
2019-01-23T23:14:09.114Z,0.50
2019-01-23T23:19:01.975Z,0.50
2019-01-23T23:23:54.813Z,0.40
2019-01-23T23:28:47.668Z,0.40
2019-01-23T23:33:40.532Z,0.50
2019-01-23T23:38:33.380Z,0.40
2019-01-23T23:43:26.204Z,0.50
2019-01-23T23:48:19.055Z,0.50
2019-01-23T23:53:11.894Z,0.50
2019-01-23T23:58:04.762Z,0.50
